Time;durP1;ratioP1;P1;durP2;ratioP2;P2;SDS_P1;SDS_P2;PMS_P1;PMS_P2;Temp;Humidity;BMP_temperature;BMP_pressure;BME280_temperature;BME280_humidity;BME280_pressure;Samples;Min_cycle;Max_cycle;Signal;HPM_P1;HPM_P2
2023/10/06 00:00:26;;;;;;;3.00;1.52;;;;;;;10.06;89.20;100566.59;335102;28;5438;-76
2023/10/06 00:00:42;;;;;;;3.25;1.50;;;;;;;10.05;88.89;100565.75;335668;28;17686;-76
2023/10/06 00:00:54;;;;;;;2.50;1.50;;;;;;;10.02;88.70;100565.81;335548;28;17914;-76
2023/10/06 00:01:11;;;;;;;2.25;1.40;;;;;;;10.03;88.62;100569.25;338698;28;4518;-76
2023/10/06 00:01:25;;;;;;;2.40;1.42;;;;;;;9.99;88.69;100566.69;336425;28;18178;-76
2023/10/06 00:01:47;;;;;;;2.33;1.45;;;;;;;10.00;88.90;100568.44;337757;28;19006;-76
2023/10/06 00:01:59;;;;;;;2.65;1.48;;;;;;;10.02;88.99;100570.13;335883;28;17608;-76
2023/10/06 00:02:14;;;;;;;3.03;1.60;;;;;;;10.02;89.12;100567.53;336172;28;17932;-76
2023/10/06 00:02:30;;;;;;;4.35;1.40;;;;;;;10.03;88.99;100566.66;336313;28;17599;-76
2023/10/06 00:02:42;;;;;;;4.53;1.20;;;;;;;10.03;88.61;100574.47;330778;28;16906;-76
2023/10/06 00:02:55;;;;;;;4.55;1.27;;;;;;;10.03;89.04;100570.13;338727;28;5295;-76
2023/10/06 00:03:10;;;;;;;4.35;1.13;;;;;;;9.99;89.36;100571.88;334697;28;18165;-77
2023/10/06 00:03:23;;;;;;;4.40;1.13;;;;;;;9.96;89.14;100574.56;337562;28;18121;-77
2023/10/06 00:03:36;;;;;;;3.60;1.48;;;;;;;9.96;89.58;100566.75;338527;28;12454;-77
2023/10/06 00:03:48;;;;;;;1.95;1.25;;;;;;;9.96;89.81;100571.94;338133;28;4997;-77
2023/10/06 00:04:06;;;;;;;1.73;1.08;;;;;;;9.98;89.63;100570.19;335209;28;18847;-77
2023/10/06 00:04:19;;;;;;;2.28;1.38;;;;;;;9.94;89.95;100570.25;334207;28;18540;-77
2023/10/06 00:04:37;;;;;;;2.33;1.40;;;;;;;9.93;90.34;100565.94;335109;28;18410;-77
2023/10/06 00:04:51;;;;;;;1.73;1.33;;;;;;;9.94;90.08;100565.94;323879;28;17894;-77
2023/10/06 00:05:11;;;;;;;3.00;1.27;;;;;;;9.96;89.91;100574.56;336260;28;18936;-77
2023/10/06 00:05:23;;;;;;;3.33;1.45;;;;;;;9.95;89.99;100569.38;331605;28;18305;-77
2023/10/06 00:05:36;;;;;;;3.17;1.50;;;;;;;9.97;89.98;100568.47;338540;28;5289;-77
2023/10/06 00:05:48;;;;;;;3.25;1.27;;;;;;;9.99;89.43;100571.88;335907;28;19175;-77
2023/10/06 00:06:00;;;;;;;3.05;1.00;;;;;;;10.00;89.40;100571.03;338149;28;4574;-77
2023/10/06 00:06:21;;;;;;;2.20;1.10;;;;;;;10.01;89.04;100571.88;327186;28;16142;-77
2023/10/06 00:06:37;;;;;;;2.83;1.15;;;;;;;9.98;88.62;100572.78;334589;28;17601;-76
2023/10/06 00:06:49;;;;;;;5.85;1.60;;;;;;;9.95;89.26;100578.00;326203;28;18026;-76
2023/10/06 00:07:07;;;;;;;5.07;1.65;;;;;;;9.97;89.25;100568.47;333546;28;18094;-76
2023/10/06 00:07:20;;;;;;;2.63;1.35;;;;;;;9.96;89.09;100569.34;336578;28;18008;-76
2023/10/06 00:07:33;;;;;;;2.95;1.48;;;;;;;9.96;89.55;100571.94;335984;28;11683;-76
2023/10/06 00:07:50;;;;;;;2.55;1.30;;;;;;;9.96;89.07;100571.06;336486;28;18048;-76
2023/10/06 00:08:16;;;;;;;2.63;1.50;;;;;;;9.95;88.79;100571.97;335785;28;15967;-76
2023/10/06 00:08:40;;;;;;;2.60;1.50;;;;;;;9.97;88.71;100568.47;334738;28;17542;-76
2023/10/06 00:08:57;;;;;;;2.10;1.40;;;;;;;9.97;88.61;100571.06;333752;28;17396;-76
2023/10/06 00:09:19;;;;;;;2.85;1.42;;;;;;;9.99;88.89;100573.63;335268;28;4562;-76
2023/10/06 00:09:31;;;;;;;3.92;1.40;;;;;;;9.98;88.43;100570.19;334776;28;17610;-77
2023/10/06 00:09:43;;;;;;;3.13;1.40;;;;;;;9.97;88.60;100563.25;334875;28;18157;-77
2023/10/06 00:09:55;;;;;;;3.08;1.35;;;;;;;9.95;88.82;100570.22;338050;28;4841;-77
2023/10/06 00:10:21;;;;;;;3.13;1.50;;;;;;;9.93;89.50;100577.19;337804;28;18133;-77
2023/10/06 00:10:36;;;;;;;2.65;1.20;;;;;;;9.94;88.89;100565.94;332347;28;18349;-77
2023/10/06 00:10:55;;;;;;;2.50;1.08;;;;;;;9.91;88.88;100572.91;329775;28;5066;-77
2023/10/06 00:11:15;;;;;;;2.65;1.17;;;;;;;9.89;89.26;100569.47;334860;28;17593;-76
2023/10/06 00:11:29;;;;;;;2.88;1.23;;;;;;;9.89;89.28;100567.72;336129;28;17276;-76
2023/10/06 00:11:41;;;;;;;3.53;1.52;;;;;;;9.89;89.45;100570.31;335562;28;17770;-76
2023/10/06 00:11:54;;;;;;;3.58;1.60;;;;;;;9.87;89.43;100568.63;337655;28;12109;-76
2023/10/06 00:12:06;;;;;;;2.78;1.60;;;;;;;9.87;89.50;100572.06;334516;28;18176;-76
2023/10/06 00:12:19;;;;;;;2.30;1.38;;;;;;;9.86;89.33;100580.78;330693;28;18043;-76
2023/10/06 00:12:31;;;;;;;2.33;1.35;;;;;;;9.88;89.36;100573.81;338057;28;4502;-76
2023/10/06 00:12:47;;;;;;;1.95;1.20;;;;;;;9.87;89.27;100571.22;334707;28;16053;-76
2023/10/06 00:12:59;;;;;;;1.70;1.10;;;;;;;9.87;88.90;100566.88;335302;28;17860;-76
2023/10/06 00:13:18;;;;;;;1.85;1.20;;;;;;;9.89;89.22;100570.31;340499;28;4653;-76
2023/10/06 00:13:31;;;;;;;3.20;1.40;;;;;;;9.87;88.85;100572.06;332191;28;18423;-76
2023/10/06 00:14:00;;;;;;;3.28;1.33;;;;;;;9.87;89.18;100572.06;326316;28;5692;-76
2023/10/06 00:14:43;;;;;;;2.55;1.38;;;;;;;9.80;89.85;100573.06;327971;28;16374;-76
2023/10/06 00:14:57;;;;;;;2.40;1.30;;;;;;;9.82;89.89;100579.09;337520;28;18348;-76
2023/10/06 00:15:12;;;;;;;1.88;1.17;;;;;;;9.84;89.84;100577.34;337483;28;16705;-76
2023/10/06 00:15:38;;;;;;;1.77;1.20;;;;;;;9.82;89.87;100578.22;335857;28;5451;-76
2023/10/06 00:15:55;;;;;;;2.33;1.48;;;;;;;9.81;90.55;100577.38;334958;28;17292;-76
2023/10/06 00:16:07;;;;;;;2.53;1.40;;;;;;;9.84;89.88;100581.66;336410;28;17572;-76
2023/10/06 00:16:19;;;;;;;4.07;1.70;;;;;;;9.83;90.04;100580.81;339627;28;5540;-76
2023/10/06 00:16:38;;;;;;;3.83;1.58;;;;;;;9.85;89.92;100579.03;331147;28;18796;-77
2023/10/06 00:16:55;;;;;;;1.90;1.20;;;;;;;9.86;89.86;100577.28;331923;28;17509;-77
2023/10/06 00:17:11;;;;;;;3.25;1.35;;;;;;;9.86;89.84;100572.97;333138;28;17289;-77
2023/10/06 00:17:28;;;;;;;3.22;1.58;;;;;;;9.88;89.40;100573.81;334407;28;17925;-77
2023/10/06 00:17:48;;;;;;;2.88;1.42;;;;;;;9.89;89.67;100574.66;336204;28;18100;-76
2023/10/06 00:18:07;;;;;;;2.95;1.40;;;;;;;9.88;89.90;100572.94;326814;28;17536;-76
2023/10/06 00:18:19;;;;;;;5.35;1.60;;;;;;;9.88;90.09;100572.94;334373;28;18598;-76
2023/10/06 00:18:36;;;;;;;5.55;1.70;;;;;;;9.89;89.90;100575.50;333545;28;16908;-76
2023/10/06 00:18:49;;;;;;;3.25;1.70;;;;;;;9.89;89.62;100574.66;333970;28;18007;-76
2023/10/06 00:19:14;;;;;;;2.95;1.65;;;;;;;9.88;89.38;100576.41;326852;28;17928;-76
2023/10/06 00:19:33;;;;;;;2.75;1.35;;;;;;;9.88;89.96;100571.22;331649;28;17376;-76
2023/10/06 00:19:48;;;;;;;2.72;1.30;;;;;;;9.87;89.71;100582.47;334591;28;15798;-76
2023/10/06 00:20:00;;;;;;;2.22;1.30;;;;;;;9.86;89.40;100570.38;324737;28;18210;-76
2023/10/06 00:20:21;;;;;;;3.13;1.52;;;;;;;9.86;89.67;100578.16;334179;28;17875;-76
2023/10/06 00:21:15;;;;;;;2.78;1.40;;;;;;;9.82;89.57;100573.91;328251;28;15950;-76
2023/10/06 00:21:16;;;;;;;2.47;1.27;;;;;;;9.81;89.21;100574.78;324486;28;17356;-76
2023/10/06 00:21:29;;;;;;;3.65;1.30;;;;;;;9.82;89.56;100578.22;332723;28;18184;-76
2023/10/06 00:21:45;;;;;;;3.67;1.40;;;;;;;9.82;89.12;100579.09;336023;28;4655;-76
2023/10/06 00:22:29;;;;;;;4.57;1.63;;;;;;;9.86;89.18;100580.78;336060;28;17695;-76
2023/10/06 00:22:41;;;;;;;5.15;1.77;;;;;;;9.88;88.93;100575.53;340155;28;5357;-76
2023/10/06 00:23:01;;;;;;;4.30;1.58;;;;;;;9.88;89.05;100573.81;337136;28;17817;-76
2023/10/06 00:23:14;;;;;;;3.15;1.20;;;;;;;9.88;88.39;100573.81;335479;28;17972;-77
2023/10/06 00:23:27;;;;;;;2.28;1.40;;;;;;;9.85;88.63;100578.19;339445;28;4553;-77
2023/10/06 00:23:43;;;;;;;3.35;1.65;;;;;;;9.83;89.62;100574.75;336333;28;18414;-77
2023/10/06 00:23:55;;;;;;;3.70;1.40;;;;;;;9.82;89.60;100579.09;335905;28;4712;-77
2023/10/06 00:24:10;;;;;;;2.60;1.35;;;;;;;9.81;89.40;100579.97;338304;28;5435;-77
2023/10/06 00:24:25;;;;;;;1.98;1.40;;;;;;;9.84;88.96;100581.66;333778;28;17925;-76
2023/10/06 00:24:41;;;;;;;3.30;1.48;;;;;;;9.84;88.77;100573.84;337105;28;17762;-76
2023/10/06 00:24:59;;;;;;;3.42;1.52;;;;;;;9.83;88.80;100580.81;335885;28;17989;-76
2023/10/06 00:25:27;;;;;;;4.60;1.80;;;;;;;9.84;88.54;100574.75;327075;28;17780;-76
2023/10/06 00:25:42;;;;;;;2.75;1.40;;;;;;;9.86;88.59;100578.16;336048;28;17680;-76
2023/10/06 00:25:55;;;;;;;3.50;1.45;;;;;;;9.86;88.28;100572.09;338557;28;15815;-76
2023/10/06 00:26:10;;;;;;;3.05;1.52;;;;;;;9.87;88.32;100572.06;340889;28;4616;-77
2023/10/06 00:26:26;;;;;;;2.72;1.55;;;;;;;9.87;87.99;100574.69;338507;28;17828;-76
2023/10/06 00:26:38;;;;;;;3.65;1.50;;;;;;;9.84;87.55;100577.34;337817;28;18097;-76
2023/10/06 00:26:52;;;;;;;3.70;1.75;;;;;;;9.86;87.73;100579.88;331082;28;14887;-76
2023/10/06 00:27:10;;;;;;;2.97;1.77;;;;;;;9.87;87.79;100577.28;335585;28;8508;-76
2023/10/06 00:27:24;;;;;;;2.90;1.52;;;;;;;9.87;87.70;100566.88;333828;28;18694;-76
2023/10/06 00:27:38;;;;;;;3.13;1.42;;;;;;;9.87;87.59;100571.22;335220;28;17671;-76
2023/10/06 00:27:50;;;;;;;3.03;1.50;;;;;;;9.87;87.78;100572.06;325248;28;12167;-76
2023/10/06 00:28:13;;;;;;;2.20;1.30;;;;;;;9.89;87.27;100575.50;336723;28;4577;-76
2023/10/06 00:28:27;;;;;;;2.33;1.10;;;;;;;9.83;87.79;100575.59;330116;28;17546;-76
2023/10/06 00:28:39;;;;;;;1.92;1.15;;;;;;;9.83;87.94;100573.00;339441;28;4731;-76
2023/10/06 00:28:51;;;;;;;4.35;1.48;;;;;;;9.85;87.83;100573.00;337201;28;18254;-76
2023/10/06 00:29:17;;;;;;;4.28;1.67;;;;;;;9.84;87.85;100566.06;339715;28;5285;-76
2023/10/06 00:29:30;;;;;;;2.45;1.58;;;;;;;9.85;87.57;100568.66;338248;28;17331;-76
2023/10/06 00:29:54;;;;;;;2.22;1.50;;;;;;;9.85;87.74;100563.47;338709;28;18831;-76
2023/10/06 00:30:11;;;;;;;2.20;1.33;;;;;;;9.83;87.35;100565.22;334144;28;17072;-76
2023/10/06 00:30:25;;;;;;;2.28;1.40;;;;;;;9.83;87.48;100573.00;335218;28;17730;-76
2023/10/06 00:30:37;;;;;;;1.77;1.20;;;;;;;9.82;87.62;100560.91;336699;28;17949;-76
2023/10/06 00:30:56;;;;;;;1.90;1.23;;;;;;;9.79;88.26;100568.75;337821;28;5503;-76
2023/10/06 00:31:11;;;;;;;3.05;1.35;;;;;;;9.76;88.91;100563.59;332851;28;17356;-76
2023/10/06 00:31:24;;;;;;;2.50;1.27;;;;;;;9.79;88.45;100566.16;328787;28;17078;-76
2023/10/06 00:31:40;;;;;;;2.45;1.30;;;;;;;9.77;88.42;100565.31;336505;28;5577;-76
2023/10/06 00:31:53;;;;;;;2.80;1.33;;;;;;;9.77;88.16;100567.91;334535;28;18773;-76
2023/10/06 00:32:36;;;;;;;2.75;1.30;;;;;;;9.79;88.04;100553.16;336231;28;17601;-76
2023/10/06 00:32:49;;;;;;;2.38;1.30;;;;;;;9.77;87.77;100555.78;337167;28;5045;-76
2023/10/06 00:33:02;;;;;;;2.55;1.38;;;;;;;9.75;88.44;100562.72;334102;28;12029;-76
2023/10/06 00:33:15;;;;;;;2.85;1.70;;;;;;;9.78;88.16;100552.31;338033;28;4817;-76
2023/10/06 00:33:37;;;;;;;3.45;1.80;;;;;;;9.75;88.30;100559.28;334978;28;14868;-76
2023/10/06 00:33:50;;;;;;;2.90;1.42;;;;;;;9.76;88.11;100563.59;334158;28;17647;-76
2023/10/06 00:34:04;;;;;;;2.33;1.58;;;;;;;9.76;87.92;100553.22;334326;28;4803;-76
2023/10/06 00:34:30;;;;;;;2.40;1.60;;;;;;;9.74;87.94;100560.19;337092;28;5544;-76
2023/10/06 00:34:42;;;;;;;3.22;1.50;;;;;;;9.74;88.16;100560.19;334765;28;15572;-76
2023/10/06 00:35:11;;;;;;;2.78;1.45;;;;;;;9.78;87.97;100556.66;337784;28;4618;-76
2023/10/06 00:35:30;;;;;;;2.20;1.30;;;;;;;9.78;88.18;100556.66;334235;28;18326;-76
2023/10/06 00:35:44;;;;;;;2.17;1.40;;;;;;;9.78;88.23;100554.06;322172;28;18000;-76
2023/10/06 00:35:56;;;;;;;2.42;1.50;;;;;;;9.77;88.45;100555.78;335748;28;4674;-76
2023/10/06 00:36:13;;;;;;;2.75;1.67;;;;;;;9.78;88.34;100560.09;334253;28;16603;-76
2023/10/06 00:36:29;;;;;;;2.63;1.45;;;;;;;9.77;88.20;100554.94;336031;28;18893;-76
2023/10/06 00:36:41;;;;;;;2.67;1.27;;;;;;;9.76;88.23;100561.00;337424;28;16021;-76
2023/10/06 00:36:56;;;;;;;2.97;1.40;;;;;;;9.75;88.04;100551.50;336175;28;18205;-76
2023/10/06 00:37:11;;;;;;;3.00;1.52;;;;;;;9.73;87.86;100561.91;336150;28;4587;-76
2023/10/06 00:37:23;;;;;;;2.67;1.73;;;;;;;9.74;88.03;100560.19;336105;28;17861;-76
2023/10/06 00:37:38;;;;;;;2.58;1.70;;;;;;;9.72;87.96;100556.75;333889;28;5522;-76
2023/10/06 00:37:50;;;;;;;2.55;1.58;;;;;;;9.72;88.12;100557.59;335627;28;17801;-76
2023/10/06 00:38:18;;;;;;;2.05;1.42;;;;;;;9.71;87.99;100560.22;338805;28;10031;-77
2023/10/06 00:38:30;;;;;;;2.70;1.38;;;;;;;9.70;87.55;100553.28;334081;28;17224;-77
2023/10/06 00:38:47;;;;;;;2.33;1.30;;;;;;;9.69;87.71;100557.63;336134;28;5254;-77
2023/10/06 00:39:00;;;;;;;2.40;1.10;;;;;;;9.68;87.46;100555.03;333015;28;17937;-76
2023/10/06 00:39:13;;;;;;;2.50;1.20;;;;;;;9.69;87.40;100556.78;332819;28;5395;-76
2023/10/06 00:39:29;;;;;;;2.67;1.25;;;;;;;9.68;87.38;100555.94;335470;28;10021;-76
2023/10/06 00:39:43;;;;;;;3.35;1.60;;;;;;;9.65;87.78;100560.31;334634;28;17819;-76
2023/10/06 00:39:56;;;;;;;3.30;1.80;;;;;;;9.66;87.64;100557.69;335107;28;17741;-76
2023/10/06 00:40:24;;;;;;;2.60;1.48;;;;;;;9.67;87.78;100555.94;338263;28;4561;-76
2023/10/06 00:40:39;;;;;;;3.33;1.50;;;;;;;9.68;87.74;100558.53;334816;28;18018;-76
2023/10/06 00:40:52;;;;;;;2.10;1.42;;;;;;;9.69;87.95;100561.97;334710;28;18099;-76
2023/10/06 00:41:07;;;;;;;2.53;1.55;;;;;;;9.69;87.91;100559.38;335148;28;12782;-76
2023/10/06 00:41:20;;;;;;;4.28;1.52;;;;;;;9.70;87.80;100558.47;335882;28;17136;-76
2023/10/06 00:41:35;;;;;;;4.55;1.35;;;;;;;9.69;87.60;100560.22;337794;28;4561;-76
2023/10/06 00:41:47;;;;;;;3.55;1.35;;;;;;;9.71;87.76;100560.22;330168;28;17687;-76
2023/10/06 00:42:04;;;;;;;2.65;1.40;;;;;;;9.72;87.79;100557.59;339085;28;4708;-76
2023/10/06 00:42:19;;;;;;;3.10;1.80;;;;;;;9.70;87.86;100551.56;336441;28;17683;-76
2023/10/06 00:42:31;;;;;;;3.08;1.73;;;;;;;9.72;87.99;100556.75;335873;28;18071;-76
2023/10/06 00:42:49;;;;;;;3.10;1.65;;;;;;;9.71;87.79;100555.03;329254;28;5225;-76
2023/10/06 00:43:05;;;;;;;3.97;1.70;;;;;;;9.69;87.85;100557.63;335791;28;17719;-76
2023/10/06 00:43:39;;;;;;;3.40;1.58;;;;;;;9.68;87.96;100557.66;335845;28;19012;-76
2023/10/06 00:43:52;;;;;;;4.80;1.50;;;;;;;9.67;87.56;100558.53;334511;28;18014;-76
2023/10/06 00:44:05;;;;;;;4.18;1.40;;;;;;;9.68;87.41;100557.66;337652;28;4783;-76
2023/10/06 00:44:21;;;;;;;3.28;1.48;;;;;;;9.69;87.37;100556.78;329206;28;18043;-76
2023/10/06 00:44:34;;;;;;;3.85;1.50;;;;;;;9.70;87.72;100558.47;336901;28;17829;-76
2023/10/06 00:44:47;;;;;;;2.47;1.48;;;;;;;9.69;87.53;100559.38;331701;28;19062;-77
2023/10/06 00:44:59;;;;;;;1.83;1.50;;;;;;;9.68;87.56;100557.66;338275;28;5049;-76
2023/10/06 00:45:11;;;;;;;1.55;1.42;;;;;;;9.69;87.18;100560.22;336017;28;13235;-76
2023/10/06 00:45:26;;;;;;;2.10;1.65;;;;;;;9.69;87.01;100556.78;323960;28;19012;-76
2023/10/06 00:45:39;;;;;;;3.05;1.80;;;;;;;9.70;87.29;100561.06;335919;28;17922;-76
2023/10/06 00:45:51;;;;;;;2.85;1.75;;;;;;;9.72;87.29;100556.75;335725;28;11294;-76
2023/10/06 00:46:08;;;;;;;2.45;1.80;;;;;;;9.72;87.33;100559.34;338395;28;4655;-76
2023/10/06 00:46:20;;;;;;;2.33;1.80;;;;;;;9.69;87.14;100560.22;333186;28;18024;-76
2023/10/06 00:46:32;;;;;;;2.53;1.83;;;;;;;9.67;87.19;100559.38;336080;28;18332;-76
2023/10/06 00:46:44;;;;;;;2.72;1.83;;;;;;;9.66;87.20;100557.69;338577;28;5326;-76
2023/10/06 00:47:05;;;;;;;2.97;2.00;;;;;;;9.67;87.18;100559.38;338519;28;5212;-76
2023/10/06 00:47:18;;;;;;;3.38;1.80;;;;;;;9.66;87.30;100562.00;336328;28;17965;-76
2023/10/06 00:47:38;;;;;;;3.85;1.80;;;;;;;9.66;87.65;100567.19;340142;28;5343;-76
2023/10/06 00:47:55;;;;;;;4.03;1.75;;;;;;;9.65;87.40;100561.16;337137;28;16890;-76
2023/10/06 00:48:14;;;;;;;3.95;1.90;;;;;;;9.62;87.62;100557.72;336627;28;18409;-76
2023/10/06 00:48:29;;;;;;;5.25;2.30;;;;;;;9.62;87.72;100555.13;336042;28;17475;-76
2023/10/06 00:48:44;;;;;;;4.07;2.08;;;;;;;9.63;87.42;100559.47;337143;28;19321;-76
2023/10/06 00:48:59;;;;;;;3.28;1.75;;;;;;;9.62;87.55;100560.31;338841;28;17972;-76
2023/10/06 00:49:13;;;;;;;4.13;1.90;;;;;;;9.63;87.42;100567.25;337987;28;19248;-76
2023/10/06 00:49:28;;;;;;;4.15;2.17;;;;;;;9.63;87.39;100568.09;335858;28;18046;-76
2023/10/06 00:49:43;;;;;;;2.90;1.95;;;;;;;9.60;87.44;100563.81;333023;28;17586;-76
2023/10/06 00:49:55;;;;;;;3.15;2.15;;;;;;;9.63;87.63;100565.50;333549;28;18371;-76
2023/10/06 00:50:11;;;;;;;3.45;2.17;;;;;;;9.63;87.36;100557.72;339465;28;4617;-76
2023/10/06 00:50:24;;;;;;;3.10;1.80;;;;;;;9.65;87.64;100555.09;336978;28;17954;-76
2023/10/06 00:50:36;;;;;;;3.25;1.85;;;;;;;9.64;87.81;100563.75;336206;28;18219;-76
2023/10/06 00:50:48;;;;;;;2.60;1.63;;;;;;;9.65;87.96;100557.69;334785;28;11429;-76
2023/10/06 00:51:04;;;;;;;2.50;1.60;;;;;;;9.64;87.89;100559.44;337263;28;5629;-76
2023/10/06 00:51:22;;;;;;;3.17;1.90;;;;;;;9.66;87.86;100554.22;334043;28;17891;-76
2023/10/06 00:51:34;;;;;;;3.20;1.90;;;;;;;9.66;87.31;100562.00;334177;28;17804;-76
2023/10/06 00:51:47;;;;;;;2.47;1.90;;;;;;;9.68;87.48;100557.66;337211;28;4783;-76
2023/10/06 00:51:59;;;;;;;2.53;1.60;;;;;;;9.67;87.38;100556.78;334426;28;18150;-76
2023/10/06 00:52:12;;;;;;;2.58;1.63;;;;;;;9.67;87.78;100558.53;332099;28;4687;-76
2023/10/06 00:52:24;;;;;;;3.25;1.75;;;;;;;9.66;87.65;100551.63;332503;28;16172;-76
2023/10/06 00:52:39;;;;;;;3.65;2.17;;;;;;;9.66;87.66;100556.81;335959;28;4723;-76
2023/10/06 00:52:51;;;;;;;4.32;2.40;;;;;;;9.65;87.87;100550.75;331043;28;17722;-76
2023/10/06 00:53:04;;;;;;;4.65;2.45;;;;;;;9.65;87.63;100547.31;334821;28;11735;-76
2023/10/06 00:53:20;;;;;;;4.32;2.20;;;;;;;9.64;87.83;100549.06;337050;28;17104;-76
2023/10/06 00:53:32;;;;;;;3.60;1.90;;;;;;;9.64;88.04;100549.06;330352;28;17831;-76
2023/10/06 00:53:51;;;;;;;2.88;1.75;;;;;;;9.63;87.81;100542.13;334833;28;16619;-76
2023/10/06 00:54:03;;;;;;;2.25;1.88;;;;;;;9.66;87.66;100549.03;334474;28;17746;-76
2023/10/06 00:54:15;;;;;;;2.42;1.80;;;;;;;9.65;87.98;100552.50;334630;28;19103;-76
2023/10/06 00:54:27;;;;;;;2.40;1.60;;;;;;;9.65;87.70;100549.91;337288;28;6636;-76
2023/10/06 00:54:43;;;;;;;2.72;1.80;;;;;;;9.66;87.65;100546.41;334051;28;17973;-76
2023/10/06 00:54:55;;;;;;;3.05;1.85;;;;;;;9.65;87.68;100549.91;335759;28;10699;-76
2023/10/06 00:55:12;;;;;;;2.65;1.70;;;;;;;9.66;87.55;100536.91;332428;28;17043;-76
2023/10/06 00:55:25;;;;;;;2.92;1.95;;;;;;;9.64;87.53;100537.81;334856;28;18347;-76
2023/10/06 00:55:39;;;;;;;3.67;2.10;;;;;;;9.65;87.59;100544.72;334464;28;14830;-76
2023/10/06 00:55:54;;;;;;;3.50;2.10;;;;;;;9.63;87.79;100547.34;334640;28;16008;-76
2023/10/06 00:56:16;;;;;;;3.33;2.10;;;;;;;9.63;87.79;100555.13;336047;28;18302;-76
2023/10/06 00:56:31;;;;;;;4.10;1.92;;;;;;;9.63;87.66;100546.47;334904;28;17639;-76
2023/10/06 00:56:43;;;;;;;2.80;1.95;;;;;;;9.63;87.64;100546.47;330947;28;17670;-76
2023/10/06 00:56:57;;;;;;;2.95;2.13;;;;;;;9.64;87.72;100543.00;339164;28;4537;-76
2023/10/06 00:57:17;;;;;;;3.85;2.22;;;;;;;9.62;87.87;100544.75;335873;28;17949;-76
2023/10/06 00:57:31;;;;;;;4.00;2.33;;;;;;;9.55;88.30;100542.25;335284;28;17724;-76
2023/10/06 00:57:52;;;;;;;3.35;2.20;;;;;;;9.57;88.56;100545.69;336836;28;17255;-76
2023/10/06 00:58:10;;;;;;;5.13;2.38;;;;;;;9.56;88.48;100546.56;331131;28;18437;-76
2023/10/06 00:58:22;;;;;;;3.92;2.25;;;;;;;9.56;88.42;100543.97;333474;28;17447;-76
2023/10/06 00:58:35;;;;;;;3.92;2.25;;;;;;;9.57;88.45;100543.09;336019;28;4686;-76
2023/10/06 00:58:47;;;;;;;4.13;2.38;;;;;;;9.55;88.63;100544.84;334138;28;5222;-76
2023/10/06 00:59:04;;;;;;;3.47;2.30;;;;;;;9.52;88.80;100544.91;337248;28;5469;-76
2023/10/06 00:59:17;;;;;;;3.13;2.15;;;;;;;9.51;88.85;100537.97;333216;28;17860;-76
2023/10/06 00:59:29;;;;;;;3.33;2.28;;;;;;;9.53;89.00;100538.81;336198;28;5199;-76
2023/10/06 00:59:41;;;;;;;3.42;2.17;;;;;;;9.55;88.48;100542.25;331073;28;4660;-76
2023/10/06 00:59:55;;;;;;;3.55;2.10;;;;;;;9.58;88.44;100541.38;333514;28;17698;-76
2023/10/06 01:00:21;;;;;;;3.60;2.10;;;;;;;9.58;88.10;100538.78;333112;28;5294;-76
2023/10/06 01:00:37;;;;;;;3.72;2.25;;;;;;;9.59;88.30;100541.31;334619;28;17057;-76
2023/10/06 01:00:52;;;;;;;3.20;2.25;;;;;;;9.56;88.38;100538.78;335754;28;19017;-76
2023/10/06 01:01:07;;;;;;;2.92;2.20;;;;;;;9.57;88.30;100535.28;334998;28;17793;-76
2023/10/06 01:01:21;;;;;;;4.93;2.40;;;;;;;9.58;87.97;100543.97;331839;28;18129;-76
2023/10/06 01:01:34;;;;;;;5.05;2.22;;;;;;;9.56;88.11;100538.78;335726;28;11301;-76
2023/10/06 01:01:46;;;;;;;3.17;1.95;;;;;;;9.58;88.35;100537.03;338731;28;4665;-76
2023/10/06 01:01:59;;;;;;;3.15;1.90;;;;;;;9.55;88.51;100537.06;336106;28;16241;-76
2023/10/06 01:02:14;;;;;;;3.17;2.13;;;;;;;9.55;89.05;100539.66;337569;28;5568;-76
2023/10/06 01:02:27;;;;;;;5.18;2.22;;;;;;;9.56;88.91;100538.78;323734;28;18216;-76
2023/10/06 01:02:40;;;;;;;5.47;2.30;;;;;;;9.54;88.58;100537.94;335824;28;18433;-76
2023/10/06 01:02:52;;;;;;;3.85;2.20;;;;;;;9.52;88.79;100539.72;337136;28;4671;-76
2023/10/06 01:03:11;;;;;;;3.05;1.98;;;;;;;9.52;88.58;100539.72;333710;28;12203;-76
2023/10/06 01:03:26;;;;;;;3.85;2.00;;;;;;;9.54;88.36;100545.75;334120;28;17521;-76
2023/10/06 01:03:39;;;;;;;4.00;1.85;;;;;;;9.57;88.57;100543.09;335067;28;5266;-76
2023/10/06 01:04:00;;;;;;;3.47;1.70;;;;;;;9.57;88.19;100548.28;333156;28;17802;-76
2023/10/06 01:04:16;;;;;;;2.50;2.05;;;;;;;9.58;88.46;100539.63;332708;28;18165;-76
2023/10/06 01:04:34;;;;;;;3.05;2.05;;;;;;;9.61;88.05;100541.31;333458;28;17801;-77
2023/10/06 01:04:52;;;;;;;2.58;1.60;;;;;;;9.61;88.18;100538.72;332198;28;17428;-76
2023/10/06 01:05:08;;;;;;;3.50;1.92;;;;;;;9.60;88.10;100543.06;333574;28;17823;-76
2023/10/06 01:05:21;;;;;;;3.50;1.90;;;;;;;9.59;88.09;100538.72;335723;28;18903;-76
2023/10/06 01:05:33;;;;;;;4.57;1.80;;;;;;;9.56;88.07;100536.19;337166;28;4672;-76
2023/10/06 01:05:45;;;;;;;3.72;1.70;;;;;;;9.56;88.37;100541.38;339498;28;12870;-76
2023/10/06 01:06:06;;;;;;;2.28;1.60;;;;;;;9.57;88.39;100547.41;337162;28;18464;-76
2023/10/06 01:06:22;;;;;;;3.03;1.77;;;;;;;9.53;88.34;100533.63;334157;28;17728;-76
2023/10/06 01:06:38;;;;;;;3.53;1.80;;;;;;;9.55;88.46;100544.00;334730;28;17716;-76
2023/10/06 01:06:54;;;;;;;4.25;2.20;;;;;;;9.55;88.20;100544.00;335277;28;18222;-76
2023/10/06 01:07:08;;;;;;;4.18;1.85;;;;;;;9.55;88.27;100547.44;335995;28;17871;-76
2023/10/06 01:07:24;;;;;;;3.20;1.42;;;;;;;9.53;88.09;100546.59;338279;28;5179;-76
2023/10/06 01:07:36;;;;;;;3.05;1.70;;;;;;;9.52;88.19;100550.09;336195;28;17914;-76
2023/10/06 01:07:49;;;;;;;2.58;1.60;;;;;;;9.53;88.08;100541.41;338972;28;5026;-76
2023/10/06 01:08:05;;;;;;;2.47;1.60;;;;;;;9.53;88.23;100544.00;336284;28;16804;-76
2023/10/06 01:08:17;;;;;;;2.35;1.50;;;;;;;9.54;88.20;100552.66;334819;28;16264;-76
2023/10/06 01:08:33;;;;;;;2.65;1.50;;;;;;;9.52;88.24;100547.50;334417;28;18043;-76
2023/10/06 01:08:52;;;;;;;2.17;1.42;;;;;;;9.52;87.74;100549.25;338914;28;5508;-76
2023/10/06 01:09:16;;;;;;;1.90;1.27;;;;;;;9.52;88.02;100544.06;333968;28;18360;-76
2023/10/06 01:09:34;;;;;;;2.33;1.30;;;;;;;9.51;87.91;100553.56;334908;28;17459;-76
2023/10/06 01:09:57;;;;;;;2.65;1.55;;;;;;;9.49;87.87;100544.94;339654;28;18559;-76
2023/10/06 01:10:16;;;;;;;2.40;1.50;;;;;;;9.49;87.66;100549.28;337081;28;17348;-76
2023/10/06 01:10:34;;;;;;;2.15;1.48;;;;;;;9.49;87.80;100544.94;336070;28;18632;-76
2023/10/06 01:10:51;;;;;;;1.98;1.48;;;;;;;9.50;87.66;100546.66;334982;28;17841;-76
2023/10/06 01:11:11;;;;;;;1.92;1.48;;;;;;;9.52;87.81;100549.25;336376;28;16108;-76
2023/10/06 01:11:26;;;;;;;2.53;1.45;;;;;;;9.50;87.60;100545.81;335190;28;17813;-76
2023/10/06 01:11:50;;;;;;;2.47;1.25;;;;;;;9.49;86.98;100550.13;336309;28;17909;-76
2023/10/06 01:12:06;;;;;;;3.20;1.52;;;;;;;9.48;87.06;100542.38;331272;28;17159;-76
2023/10/06 01:12:19;;;;;;;3.40;1.40;;;;;;;9.47;86.75;100545.84;335799;28;18702;-76
2023/10/06 01:12:32;;;;;;;4.10;1.50;;;;;;;9.48;86.69;100548.41;338569;28;4617;-76
2023/10/06 01:12:51;;;;;;;3.80;1.33;;;;;;;9.47;86.54;100546.69;334473;28;17711;-76
2023/10/06 01:13:14;;;;;;;2.33;1.27;;;;;;;9.46;86.22;100545.00;337126;28;18524;-76
2023/10/06 01:13:27;;;;;;;2.38;1.33;;;;;;;9.43;85.97;100545.00;337704;28;16872;-76
2023/10/06 01:13:52;;;;;;;2.83;1.50;;;;;;;9.42;86.05;100542.44;334611;28;18056;-76
2023/10/06 01:14:04;;;;;;;3.40;1.50;;;;;;;9.38;85.70;100546.84;335049;28;17147;-76
2023/10/06 01:14:21;;;;;;;3.03;1.45;;;;;;;9.34;86.31;100539.97;337925;28;5613;-76
2023/10/06 01:14:34;;;;;;;2.40;1.52;;;;;;;9.34;86.16;100539.97;335858;28;17366;-76
2023/10/06 01:14:46;;;;;;;3.10;1.60;;;;;;;9.33;86.54;100548.63;339301;28;4691;-76
2023/10/06 01:15:16;;;;;;;2.88;1.38;;;;;;;9.31;86.40;100545.19;335068;28;17603;-76
2023/10/06 01:15:29;;;;;;;1.95;1.30;;;;;;;9.27;86.40;100543.50;336169;28;17361;-76
2023/10/06 01:15:49;;;;;;;2.25;1.48;;;;;;;9.25;86.56;100540.06;338045;28;17617;-76
2023/10/06 01:16:01;;;;;;;2.70;1.40;;;;;;;9.21;86.99;100544.44;334915;28;17659;-76
2023/10/06 01:16:16;;;;;;;2.25;1.25;;;;;;;9.20;87.02;100542.72;334372;28;5131;-76
2023/10/06 01:16:35;;;;;;;1.92;1.30;;;;;;;9.20;86.98;100546.19;336367;28;18352;-76
2023/10/06 01:16:52;;;;;;;2.55;1.20;;;;;;;9.19;87.20;100547.06;334571;28;17401;-76